Time;durP1;ratioP1;P1;durP2;ratioP2;P2;SDS_P1;SDS_P2;PMS_P1;PMS_P2;Temp;Humidity;BMP_temperature;BMP_pressure;BME280_temperature;BME280_humidity;BME280_pressure;Samples;Min_cycle;Max_cycle;Signal;HPM_P1;HPM_P2
2022/09/12 00:00:04;;;;;;;8.60;7.70;;;12.50;99.90;;;;;;4919679;28;20265;-89
2022/09/12 00:02:30;;;;;;;8.43;7.73;;;12.50;99.90;;;;;;4922256;28;20179;-90
2022/09/12 00:04:55;;;;;;;8.10;7.33;;;12.50;99.90;;;;;;4921622;28;20444;-89
2022/09/12 00:07:21;;;;;;;8.43;7.63;;;12.50;99.90;;;;;;4918860;28;20202;-89
2022/09/12 00:09:47;;;;;;;9.07;8.27;;;12.50;99.90;;;;;;4923491;28;20201;-89
2022/09/12 00:12:12;;;;;;;7.90;7.20;;;12.50;99.90;;;;;;4923404;28;20201;-89
2022/09/12 00:14:38;;;;;;;8.10;7.40;;;12.60;99.90;;;;;;4927413;29;20218;-90
2022/09/12 00:17:03;;;;;;;7.77;7.07;;;12.50;99.90;;;;;;4923493;28;20298;-89
2022/09/12 00:19:29;;;;;;;9.40;7.90;;;12.50;99.90;;;;;;4930065;29;20218;-89
2022/09/12 00:21:55;;;;;;;7.27;6.57;;;12.40;99.90;;;;;;4941499;28;20598;-89
2022/09/12 00:24:21;;;;;;;7.53;6.83;;;12.40;99.90;;;;;;4927634;29;20529;-90
2022/09/12 00:26:47;;;;;;;9.10;7.23;;;12.40;99.90;;;;;;4925891;28;20763;-88
2022/09/12 00:29:18;;;;;;;7.90;7.20;;;12.40;99.90;;;;;;4936947;28;20537;-89
2022/09/12 00:31:44;;;;;;;7.50;6.90;;;12.40;99.90;;;;;;4921945;28;20501;-88
2022/09/12 00:34:12;;;;;;;7.17;6.47;;;12.30;99.90;;;;;;4915439;28;20533;-89
2022/09/12 00:36:41;;;;;;;6.27;5.67;;;12.30;99.90;;;;;;4928053;28;20194;-88
2022/09/12 00:39:08;;;;;;;5.63;5.23;;;12.20;99.90;;;;;;4921902;28;20454;-89
2022/09/12 00:41:39;;;;;;;7.00;6.30;;;12.20;99.90;;;;;;4926832;28;20487;-89
2022/09/12 00:44:14;;;;;;;6.87;6.37;;;12.20;99.90;;;;;;4925577;28;20508;-90
2022/09/12 00:47:13;;;;;;;6.90;6.30;;;12.20;99.90;;;;;;4926048;29;20472;-88
2022/09/12 00:49:44;;;;;;;6.60;6.00;;;12.20;99.90;;;;;;4926144;29;20453;-88
2022/09/12 00:52:40;;;;;;;7.23;6.53;;;12.10;99.90;;;;;;4924263;29;20961;-88
2022/09/12 00:55:11;;;;;;;6.80;6.20;;;12.10;99.90;;;;;;4928075;28;20815;-87
2022/09/12 00:57:46;;;;;;;7.63;6.90;;;12.10;99.90;;;;;;4920326;29;20514;-89
2022/09/12 01:00:18;;;;;;;7.80;7.10;;;12.10;99.90;;;;;;4918119;29;21086;-88
2022/09/12 01:02:47;;;;;;;8.50;7.77;;;12.10;99.90;;;;;;4925434;29;20766;-88
2022/09/12 01:05:15;;;;;;;9.13;7.90;;;12.10;99.90;;;;;;4921883;29;20866;-88
2022/09/12 01:07:43;;;;;;;8.27;7.57;;;12.10;99.90;;;;;;4923674;28;20445;-88
2022/09/12 01:10:11;;;;;;;7.57;6.67;;;12.10;99.90;;;;;;4924142;28;20450;-88
2022/09/12 01:12:40;;;;;;;7.87;7.17;;;12.10;99.90;;;;;;4922054;29;20542;-89
2022/09/12 01:15:06;;;;;;;8.27;7.47;;;12.10;99.90;;;;;;4924171;28;20446;-91
2022/09/12 01:17:54;;;;;;;7.90;7.20;;;12.10;99.90;;;;;;4924159;29;20438;-90
2022/09/12 01:20:34;;;;;;;8.20;7.50;;;12.10;99.90;;;;;;4882834;29;20481;-90
2022/09/12 01:23:21;;;;;;;7.83;7.17;;;12.00;99.90;;;;;;4923374;28;20438;-90
2022/09/12 01:26:19;;;;;;;7.97;7.17;;;11.90;99.90;;;;;;4924855;28;20482;-90
2022/09/12 01:29:07;;;;;;;7.77;7.17;;;12.00;99.90;;;;;;4920899;28;20450;-89
2022/09/12 01:31:40;;;;;;;9.33;7.70;;;12.00;99.90;;;;;;4939603;28;20498;-89
2022/09/12 01:34:14;;;;;;;8.17;7.37;;;12.00;99.90;;;;;;4923097;28;20443;-88
2022/09/12 01:36:56;;;;;;;8.63;7.83;;;11.90;99.90;;;;;;4921172;29;20461;-89
2022/09/12 01:39:43;;;;;;;7.97;7.27;;;11.90;99.90;;;;;;4925215;29;20436;-89
2022/09/12 01:42:39;;;;;;;8.00;7.30;;;11.80;99.90;;;;;;4920945;28;20454;-89
2022/09/12 01:45:17;;;;;;;7.83;7.13;;;11.80;99.90;;;;;;4924826;28;20447;-88
2022/09/12 01:47:49;;;;;;;7.83;7.10;;;11.80;99.90;;;;;;4923752;28;20486;-88
2022/09/12 01:50:24;;;;;;;7.90;7.10;;;11.80;99.90;;;;;;4943766;28;20446;-89
2022/09/12 01:53:14;;;;;;;6.40;5.90;;;11.80;99.90;;;;;;4938428;28;20457;-89
2022/09/12 01:55:48;;;;;;;6.87;6.27;;;11.80;99.90;;;;;;4937726;28;20447;-89
2022/09/12 01:58:21;;;;;;;6.87;6.37;;;11.70;99.90;;;;;;4939025;28;20858;-88
2022/09/12 02:00:54;;;;;;;7.73;7.03;;;11.80;99.90;;;;;;4924461;28;20488;-89
2022/09/12 02:03:30;;;;;;;6.77;6.17;;;11.80;99.90;;;;;;4924994;28;20487;-89
2022/09/12 02:06:05;;;;;;;8.80;7.87;;;11.80;99.90;;;;;;4920860;28;20475;-89
2022/09/12 02:08:39;;;;;;;7.37;6.67;;;11.70;99.90;;;;;;4927011;29;20423;-89
2022/09/12 02:11:17;;;;;;;7.20;6.60;;;11.70;99.90;;;;;;4923832;28;20457;-89
2022/09/12 02:14:03;;;;;;;6.57;6.07;;;11.70;99.90;;;;;;4925800;28;20449;-89
2022/09/12 02:16:40;;;;;;;6.10;5.60;;;11.60;99.90;;;;;;4928120;28;20509;-90
2022/09/12 02:19:16;;;;;;;6.53;6.03;;;11.50;99.90;;;;;;4925009;28;20442;-89
2022/09/12 02:21:48;;;;;;;6.00;5.50;;;11.40;99.90;;;;;;4925644;29;20516;-90
2022/09/12 02:24:16;;;;;;;5.70;5.30;;;11.50;99.90;;;;;;4926991;28;20455;-89
2022/09/12 02:26:55;;;;;;;6.40;5.90;;;11.50;99.90;;;;;;4921937;28;20450;-89
2022/09/12 02:29:21;;;;;;;6.50;5.90;;;11.70;99.90;;;;;;4922785;29;20442;-89
2022/09/12 02:32:07;;;;;;;6.63;6.03;;;11.70;99.90;;;;;;4926670;28;20820;-89
2022/09/12 02:34:58;;;;;;;6.40;5.80;;;11.70;99.90;;;;;;4914245;29;20190;-89
2022/09/12 02:37:27;;;;;;;6.30;5.80;;;11.80;99.90;;;;;;4922009;28;20445;-89
2022/09/12 02:39:54;;;;;;;6.23;5.70;;;11.70;99.90;;;;;;4921223;28;20850;-89
2022/09/12 02:42:21;;;;;;;7.10;6.50;;;11.70;99.90;;;;;;4925853;29;20443;-89
2022/09/12 02:44:47;;;;;;;6.73;6.10;;;11.60;99.90;;;;;;4924874;28;20438;-89
2022/09/12 02:47:19;;;;;;;6.00;5.60;;;11.70;99.90;;;;;;4924618;29;20448;-89
2022/09/12 02:49:45;;;;;;;7.00;6.40;;;11.60;99.90;;;;;;4921391;28;20470;-89
2022/09/12 02:52:11;;;;;;;9.87;8.97;;;11.50;99.90;;;;;;4924184;29;20447;-88
2022/09/12 02:54:37;;;;;;;5.53;5.13;;;11.50;99.90;;;;;;4924943;29;21504;-88
2022/09/12 02:57:04;;;;;;;5.57;5.17;;;11.50;99.90;;;;;;4922063;28;20618;-89
2022/09/12 02:59:30;;;;;;;6.73;4.83;;;11.50;99.90;;;;;;4923233;29;20281;-89
2022/09/12 03:02:02;;;;;;;5.77;5.37;;;11.40;99.90;;;;;;4922967;28;20677;-88
2022/09/12 03:04:45;;;;;;;4.80;4.40;;;11.40;99.90;;;;;;4940137;28;20602;-88
2022/09/12 03:07:26;;;;;;;5.70;4.83;;;11.40;99.90;;;;;;4920560;28;20450;-89
2022/09/12 03:10:23;;;;;;;5.80;4.80;;;11.40;99.90;;;;;;4919979;28;20442;-88
2022/09/12 03:13:01;;;;;;;5.10;4.70;;;11.20;99.90;;;;;;4920714;28;21164;-88
2022/09/12 03:15:33;;;;;;;4.70;4.30;;;11.20;99.90;;;;;;4919229;29;20465;-87
2022/09/12 03:18:13;;;;;;;5.87;5.37;;;11.10;99.90;;;;;;4924222;28;20501;-89
2022/09/12 03:20:44;;;;;;;5.20;4.70;;;11.10;99.90;;;;;;4927650;28;20843;-90
2022/09/12 03:23:30;;;;;;;5.10;4.70;;;11.10;99.90;;;;;;4922719;28;20458;-90
2022/09/12 03:26:06;;;;;;;5.47;4.60;;;11.00;99.90;;;;;;4925755;28;20461;-89
2022/09/12 03:28:34;;;;;;;4.50;4.20;;;10.90;99.90;;;;;;4927872;28;20458;-91
2022/09/12 03:31:12;;;;;;;6.30;5.80;;;10.90;99.90;;;;;;4924801;28;20537;-91
2022/09/12 03:33:38;;;;;;;8.33;7.60;;;10.90;99.90;;;;;;4924495;29;20474;-90
2022/09/12 03:36:03;;;;;;;5.40;5.00;;;10.90;99.90;;;;;;4918344;28;20482;-89
2022/09/12 03:38:29;;;;;;;5.70;5.20;;;10.80;99.90;;;;;;4924100;29;20533;-91
2022/09/12 03:40:54;;;;;;;7.50;5.70;;;10.90;99.90;;;;;;4927617;28;20226;-92
2022/09/12 03:43:20;;;;;;;6.10;5.47;;;10.80;99.90;;;;;;4923588;29;20528;-91
2022/09/12 03:45:49;;;;;;;6.90;6.30;;;10.80;99.90;;;;;;4923156;28;20618;-90
2022/09/12 03:48:15;;;;;;;6.60;5.97;;;10.90;99.90;;;;;;4925270;29;20198;-91
2022/09/12 03:50:40;;;;;;;5.53;5.03;;;10.80;99.90;;;;;;4924011;29;20443;-90
2022/09/12 03:53:06;;;;;;;5.13;4.73;;;10.80;99.90;;;;;;4921908;28;20521;-90
2022/09/12 03:55:31;;;;;;;5.10;4.70;;;10.80;99.90;;;;;;4925467;29;20191;-91
2022/09/12 03:57:57;;;;;;;5.43;4.57;;;10.80;99.90;;;;;;4925232;28;20186;-91
2022/09/12 04:00:23;;;;;;;5.13;4.73;;;10.70;99.90;;;;;;4917097;29;20532;-91
2022/09/12 04:02:54;;;;;;;5.90;5.30;;;10.70;99.90;;;;;;4925768;28;20238;-91
2022/09/12 04:05:20;;;;;;;5.60;5.20;;;10.70;99.90;;;;;;4938057;28;20916;-91
2022/09/12 04:07:46;;;;;;;7.57;6.60;;;10.60;99.90;;;;;;4925148;28;20439;-90
2022/09/12 04:10:11;;;;;;;6.33;5.73;;;10.60;99.90;;;;;;4937998;28;20186;-90
2022/09/12 04:12:38;;;;;;;7.03;6.37;;;10.70;99.90;;;;;;4924501;29;20199;-90
2022/09/12 04:15:06;;;;;;;7.60;6.90;;;10.80;99.90;;;;;;4926816;28;20183;-89
2022/09/12 04:17:33;;;;;;;6.20;5.70;;;10.70;99.90;;;;;;4924607;28;20434;-89
2022/09/12 04:19:59;;;;;;;6.90;6.13;;;10.60;99.90;;;;;;4914847;28;20490;-91
2022/09/12 04:22:24;;;;;;;5.77;5.17;;;10.50;99.90;;;;;;4925717;29;20446;-91
2022/09/12 04:24:50;;;;;;;6.20;5.70;;;10.50;99.90;;;;;;4935719;28;20284;-90
2022/09/12 04:27:15;;;;;;;7.30;6.60;;;10.50;99.90;;;;;;4926145;29;20242;-90
2022/09/12 04:29:41;;;;;;;6.83;6.23;;;10.60;99.90;;;;;;4922099;28;20185;-90
2022/09/12 04:32:06;;;;;;;7.90;6.77;;;10.60;99.90;;;;;;4919515;28;20183;-90
2022/09/12 04:34:32;;;;;;;6.20;5.70;;;10.60;99.90;;;;;;4922292;28;20183;-91
2022/09/12 04:36:58;;;;;;;6.40;5.90;;;10.50;99.90;;;;;;4925169;28;20249;-91
2022/09/12 04:39:23;;;;;;;7.10;6.47;;;10.60;99.90;;;;;;4921689;28;20740;-91
2022/09/12 04:41:49;;;;;;;6.23;5.50;;;10.60;99.90;;;;;;4919591;28;20466;-90
2022/09/12 04:44:15;;;;;;;5.83;5.33;;;10.60;99.90;;;;;;4920041;28;20186;-91
2022/09/12 04:46:43;;;;;;;5.80;5.30;;;10.60;99.90;;;;;;4916393;29;20197;-90
2022/09/12 04:49:09;;;;;;;5.60;5.10;;;10.50;99.90;;;;;;4917470;28;20190;-94
2022/09/12 04:51:37;;;;;;;5.93;5.33;;;10.40;99.90;;;;;;4926413;29;20533;-92
2022/09/12 04:54:10;;;;;;;6.60;6.00;;;10.30;99.90;;;;;;4935946;28;20442;-93
2022/09/12 04:56:38;;;;;;;5.57;5.10;;;10.20;99.90;;;;;;4939725;28;20434;-89
2022/09/12 04:59:04;;;;;;;6.10;5.60;;;10.20;99.90;;;;;;4924080;28;20455;-89
2022/09/12 05:01:30;;;;;;;5.50;5.10;;;10.10;99.90;;;;;;4927528;28;20478;-90
2022/09/12 05:03:57;;;;;;;8.40;6.37;;;10.10;99.90;;;;;;4931596;28;20426;-93
2022/09/12 05:06:25;;;;;;;6.90;6.30;;;10.10;99.90;;;;;;4926746;28;20198;-94
2022/09/12 05:08:52;;;;;;;6.70;6.10;;;10.00;99.90;;;;;;4927776;28;20462;-90
2022/09/12 05:11:20;;;;;;;7.60;6.90;;;10.00;99.90;;;;;;4929105;29;20438;-93
2022/09/12 05:13:46;;;;;;;16.30;6.27;;;10.00;99.90;;;;;;4928398;28;20439;-91
2022/09/12 05:16:14;;;;;;;6.60;5.30;;;10.00;99.90;;;;;;4929421;29;20458;-93
2022/09/12 05:18:41;;;;;;;9.47;5.97;;;10.00;99.90;;;;;;4933293;29;20461;-93
2022/09/12 05:21:08;;;;;;;6.40;5.70;;;10.00;99.90;;;;;;4933260;28;20505;-92
2022/09/12 05:23:34;;;;;;;5.60;5.07;;;10.00;99.90;;;;;;4927821;29;22262;-92
2022/09/12 05:26:00;;;;;;;6.00;5.50;;;10.00;99.90;;;;;;4926143;28;20438;-91
2022/09/12 05:28:32;;;;;;;6.07;5.57;;;10.10;99.90;;;;;;4929772;29;20191;-91
2022/09/12 05:31:03;;;;;;;5.90;5.30;;;10.10;99.90;;;;;;4924505;28;20830;-90
2022/09/12 05:33:33;;;;;;;6.97;5.43;;;10.10;99.90;;;;;;4923394;29;20969;-92
2022/09/12 05:35:58;;;;;;;10.73;8.93;;;10.20;99.90;;;;;;4921997;28;20470;-89
2022/09/12 05:38:33;;;;;;;5.00;4.60;;;10.20;99.90;;;;;;4915483;29;20438;-90
2022/09/12 05:41:21;;;;;;;4.47;4.17;;;10.20;99.90;;;;;;4921382;28;20237;-91
2022/09/12 05:43:55;;;;;;;4.57;4.17;;;10.20;99.90;;;;;;4941522;28;20441;-94
2022/09/12 05:46:24;;;;;;;5.17;4.70;;;10.20;99.90;;;;;;4926165;29;20438;-92
2022/09/12 05:48:57;;;;;;;8.23;4.87;;;10.20;99.90;;;;;;4929817;28;20435;-93
2022/09/12 05:51:48;;;;;;;11.30;4.60;;;10.20;99.90;;;;;;4945798;28;20493;-93
2022/09/12 05:54:20;;;;;;;8.87;4.20;;;10.20;99.90;;;;;;4926528;28;20462;-93
2022/09/12 05:57:18;;;;;;;4.60;4.23;;;10.30;99.90;;;;;;4940627;28;20513;-93
2022/09/12 05:59:46;;;;;;;19.27;5.50;;;10.40;99.90;;;;;;4931157;28;20474;-93
2022/09/12 06:02:11;;;;;;;32.13;6.40;;;10.40;99.90;;;;;;4925709;28;20465;-93
2022/09/12 06:04:39;;;;;;;5.70;5.10;;;10.50;99.90;;;;;;4945107;28;20871;-91
2022/09/12 06:07:05;;;;;;;25.37;5.90;;;10.60;99.90;;;;;;4931983;28;20187;-91
2022/09/12 06:09:31;;;;;;;14.90;5.80;;;10.80;99.90;;;;;;4930054;29;20430;-92
2022/09/12 06:11:57;;;;;;;5.90;5.27;;;10.90;99.90;;;;;;4925797;28;20199;-92
2022/09/12 06:14:28;;;;;;;7.47;4.80;;;10.90;99.90;;;;;;4926944;28;20797;-92
2022/09/12 06:17:13;;;;;;;10.20;5.30;;;11.10;99.90;;;;;;4942008;28;20521;-90
2022/09/12 06:19:38;;;;;;;13.40;6.13;;;11.10;99.90;;;;;;4926304;29;20446;-90
2022/09/12 06:22:06;;;;;;;40.10;6.77;;;10.90;99.90;;;;;;4926340;28;20997;-90
2022/09/12 06:24:35;;;;;;;7.40;4.90;;;10.90;99.90;;;;;;4926806;28;20183;-90
2022/09/12 06:27:09;;;;;;;5.50;4.20;;;10.90;99.90;;;;;;4926097;28;21008;-91
2022/09/12 06:29:37;;;;;;;19.30;5.93;;;10.90;99.90;;;;;;4927079;28;20537;-90
2022/09/12 06:32:03;;;;;;;4.87;4.47;;;10.90;99.90;;;;;;4927603;28;21356;-90
2022/09/12 06:34:29;;;;;;;5.27;4.77;;;11.00;99.90;;;;;;4927687;29;20438;-92
2022/09/12 06:37:06;;;;;;;14.10;5.80;;;11.00;99.90;;;;;;4930403;28;20214;-90
2022/09/12 06:39:37;;;;;;;25.00;6.73;;;11.10;99.90;;;;;;4929377;28;20463;-91
2022/09/12 06:42:09;;;;;;;6.30;5.10;;;11.00;99.90;;;;;;4922810;28;20450;-91
2022/09/12 06:45:00;;;;;;;12.73;6.10;;;11.00;99.90;;;;;;4926044;29;20455;-90
2022/09/12 06:47:27;;;;;;;13.77;6.57;;;11.20;99.90;;;;;;4928885;29;20477;-89
2022/09/12 06:49:57;;;;;;;20.87;5.63;;;11.10;99.90;;;;;;4928237;28;20500;-90
2022/09/12 06:52:29;;;;;;;22.13;6.50;;;11.10;99.90;;;;;;4933685;28;21094;-90
2022/09/12 06:56:06;;;;;;;11.80;6.03;;;11.20;99.90;;;;;;4919185;28;20443;-95
2022/09/12 06:58:32;;;;;;;17.37;5.87;;;11.40;99.90;;;;;;4845694;29;20261;-90
2022/09/12 07:01:11;;;;;;;6.10;5.60;;;11.40;99.90;;;;;;4865898;29;21427;-94
2022/09/12 07:03:51;;;;;;;12.83;6.23;;;11.60;99.90;;;;;;4931544;28;21122;-93
2022/09/12 07:06:20;;;;;;;6.83;6.17;;;11.80;99.90;;;;;;4927170;29;20518;-93
2022/09/12 07:09:01;;;;;;;15.60;6.60;;;12.00;99.90;;;;;;4925420;28;20450;-92
2022/09/12 07:11:32;;;;;;;8.57;7.00;;;12.10;99.90;;;;;;4928481;29;20486;-93
2022/09/12 07:14:00;;;;;;;8.33;6.50;;;12.20;99.90;;;;;;4925564;28;20458;-93
2022/09/12 07:16:26;;;;;;;7.53;6.83;;;12.30;99.90;;;;;;4928705;29;20975;-93
2022/09/12 07:19:00;;;;;;;7.13;6.43;;;12.40;99.90;;;;;;4925945;28;20455;-92
2022/09/12 07:21:28;;;;;;;8.23;7.40;;;12.40;99.90;;;;;;4927958;29;20517;-93
2022/09/12 07:23:56;;;;;;;6.97;6.23;;;12.60;99.90;;;;;;4910084;28;20513;-94
2022/09/12 07:26:33;;;;;;;7.57;6.97;;;12.70;99.90;;;;;;4925263;28;20450;-92
2022/09/12 07:28:59;;;;;;;7.90;7.20;;;12.90;99.90;;;;;;4918919;28;20450;-92
2022/09/12 07:31:27;;;;;;;9.40;8.50;;;13.20;99.90;;;;;;4931153;28;20979;-93
2022/09/12 07:36:51;;;;;;;7.67;6.97;;;13.40;99.90;;;;;;4938169;28;20454;-94
2022/09/12 07:39:17;;;;;;;7.80;7.10;;;13.50;99.90;;;;;;4925274;29;20746;-94
2022/09/12 07:41:53;;;;;;;8.60;7.80;;;13.50;99.90;;;;;;4928755;28;20874;-95
2022/09/12 07:44:28;;;;;;;8.83;7.83;;;13.70;99.90;;;;;;4926244;29;20434;-95
2022/09/12 07:46:53;;;;;;;9.83;7.83;;;13.90;99.90;;;;;;4927827;28;20478;-93
2022/09/12 07:49:19;;;;;;;8.40;7.60;;;14.10;99.90;;;;;;4928666;29;20474;-94
2022/09/12 07:51:45;;;;;;;8.83;8.00;;;14.30;99.90;;;;;;4927426;28;20218;-93
2022/09/12 07:54:10;;;;;;;9.30;8.40;;;14.50;99.90;;;;;;4924499;28;20207;-92
2022/09/12 07:57:14;;;;;;;8.90;8.00;;;14.60;99.90;;;;;;4926820;29;20274;-94
2022/09/12 07:59:41;;;;;;;9.47;8.47;;;14.90;99.90;;;;;;4923838;29;20290;-94
2022/09/12 08:02:15;;;;;;;9.43;8.53;;;15.10;99.90;;;;;;4924550;28;20454;-94
2022/09/12 08:04:41;;;;;;;9.63;8.73;;;15.30;99.90;;;;;;4923770;29;21039;-92
2022/09/12 08:07:08;;;;;;;8.97;8.07;;;15.40;99.90;;;;;;4926594;28;21257;-93
2022/09/12 08:09:39;;;;;;;10.90;9.90;;;15.70;99.90;;;;;;4924164;29;20456;-93
2022/09/12 08:12:05;;;;;;;9.20;8.33;;;15.90;99.90;;;;;;4925217;28;20457;-93
2022/09/12 08:14:31;;;;;;;9.37;8.47;;;16.10;99.90;;;;;;4926509;29;20446;-94
2022/09/12 08:17:05;;;;;;;9.30;8.40;;;16.20;99.90;;;;;;4925115;28;20765;-93
2022/09/12 08:19:31;;;;;;;9.43;8.50;;;16.50;99.90;;;;;;4925711;29;20183;-93
2022/09/12 08:22:07;;;;;;;7.70;7.00;;;16.80;99.90;;;;;;4937676;28;20525;-94
2022/09/12 08:24:41;;;;;;;8.67;7.87;;;17.10;99.90;;;;;;4924845;29;20577;-93
2022/09/12 08:27:07;;;;;;;8.10;7.50;;;17.40;99.90;;;;;;4926640;28;20443;-94
2022/09/12 08:29:35;;;;;;;7.90;7.00;;;17.50;99.90;;;;;;4925277;28;20438;-93
2022/09/12 08:32:00;;;;;;;7.27;6.57;;;17.60;99.90;;;;;;4924653;28;20187;-93
2022/09/12 08:34:26;;;;;;;8.40;7.70;;;17.90;99.90;;;;;;4904201;29;20502;-94
2022/09/12 08:36:58;;;;;;;6.97;6.37;;;17.80;99.90;;;;;;4926209;28;20219;-93
2022/09/12 08:39:24;;;;;;;8.03;7.33;;;17.90;99.90;;;;;;4944456;28;20658;-93
2022/09/12 08:42:04;;;;;;;7.00;6.50;;;18.00;99.90;;;;;;4927893;28;20991;-93
2022/09/12 08:44:46;;;;;;;8.10;7.40;;;18.00;99.90;;;;;;4928528;28;20896;-94
2022/09/12 08:47:20;;;;;;;6.07;5.67;;;18.20;99.90;;;;;;4930812;29;20450;-94
2022/09/12 08:49:59;;;;;;;6.53;6.07;;;18.40;99.90;;;;;;4932727;28;20823;-94
2022/09/12 08:52:40;;;;;;;5.30;4.70;;;18.60;99.90;;;;;;4919376;29;20508;-95
2022/09/12 08:55:45;;;;;;;5.50;5.00;;;18.60;99.90;;;;;;4931478;28;20477;-95
2022/09/12 08:58:21;;;;;;;5.17;4.73;;;19.00;99.90;;;;;;4923008;29;20547;-95
2022/09/12 09:00:46;;;;;;;4.93;4.53;;;19.20;99.90;;;;;;4926389;28;20553;-95
2022/09/12 09:03:43;;;;;;;5.20;4.70;;;19.10;99.90;;;;;;4927775;29;20458;-94
2022/09/12 09:06:30;;;;;;;5.33;4.60;;;18.80;99.90;;;;;;4923003;28;20716;-94
2022/09/12 09:09:17;;;;;;;5.37;4.93;;;18.90;99.90;;;;;;4942464;28;20482;-94
2022/09/12 09:12:07;;;;;;;5.20;4.80;;;19.00;99.90;;;;;;4932316;29;20446;-95
2022/09/12 09:14:55;;;;;;;4.20;3.90;;;19.00;99.90;;;;;;4929260;28;20473;-95
2022/09/12 09:17:41;;;;;;;4.40;4.10;;;19.20;99.90;;;;;;4927157;28;20438;-93
2022/09/12 09:20:28;;;;;;;5.03;4.63;;;19.50;99.90;;;;;;4924980;28;20485;-94
2022/09/12 09:23:27;;;;;;;5.50;4.47;;;19.50;99.90;;;;;;4927304;28;20447;-95
2022/09/12 09:26:04;;;;;;;4.53;4.20;;;19.50;99.90;;;;;;4931317;28;20980;-96
2022/09/12 09:28:36;;;;;;;4.27;3.97;;;19.50;99.90;;;;;;4927980;29;20438;-94
2022/09/12 09:31:02;;;;;;;4.87;4.47;;;19.60;99.90;;;;;;4936907;28;20442;-91
2022/09/12 09:33:34;;;;;;;4.50;4.10;;;19.90;99.90;;;;;;4928920;29;20841;-93
2022/09/12 09:36:02;;;;;;;3.73;3.43;;;20.30;99.90;;;;;;4926246;28;20443;-93
2022/09/12 09:38:48;;;;;;;4.00;3.80;;;20.80;99.90;;;;;;4923452;29;20554;-93
2022/09/12 09:41:19;;;;;;;3.83;3.53;;;21.20;99.90;;;;;;4929628;28;20486;-94
2022/09/12 09:43:45;;;;;;;4.40;4.10;;;21.40;99.90;;;;;;4929640;28;20537;-94
2022/09/12 09:46:12;;;;;;;4.80;4.40;;;21.50;99.90;;;;;;4929696;29;21032;-95
2022/09/12 09:48:43;;;;;;;4.77;4.47;;;21.70;99.90;;;;;;4922649;28;20188;-93
2022/09/12 09:51:17;;;;;;;4.40;4.00;;;21.60;99.90;;;;;;4926100;28;20956;-94
2022/09/12 09:54:28;;;;;;;3.90;3.70;;;21.50;99.90;;;;;;4925644;28;20446;-94
2022/09/12 09:56:55;;;;;;;4.67;4.37;;;21.60;99.90;;;;;;4927382;28;20951;-94
2022/09/12 09:59:30;;;;;;;4.10;3.80;;;22.00;99.90;;;;;;4941363;28;20554;-94
2022/09/12 10:02:02;;;;;;;4.20;3.90;;;22.30;99.90;;;;;;4929199;28;21231;-93
2022/09/12 10:04:34;;;;;;;3.93;3.63;;;22.60;99.90;;;;;;4934067;28;20448;-92
2022/09/12 10:07:04;;;;;;;3.80;3.50;;;22.60;99.90;;;;;;4933128;28;20450;-92
2022/09/12 10:09:35;;;;;;;3.70;3.50;;;22.80;98.60;;;;;;4929091;28;20773;-92
2022/09/12 10:12:27;;;;;;;4.17;3.77;;;23.00;98.00;;;;;;4927546;28;20466;-93
2022/09/12 10:15:02;;;;;;;3.60;3.40;;;23.20;98.60;;;;;;4932988;28;20452;-92
2022/09/12 10:17:45;;;;;;;3.77;3.47;;;23.30;97.90;;;;;;4931077;28;20553;-92
2022/09/12 10:20:36;;;;;;;3.87;3.67;;;23.30;98.00;;;;;;4928013;28;20844;-92
2022/09/12 10:23:21;;;;;;;3.33;3.13;;;23.40;97.00;;;;;;4928104;28;20476;-93
2022/09/12 10:25:53;;;;;;;3.10;2.90;;;23.60;97.50;;;;;;4933274;28;20756;-92
2022/09/12 10:28:28;;;;;;;3.97;3.77;;;23.60;96.10;;;;;;4931515;28;20477;-92
2022/09/12 10:30:54;;;;;;;3.43;3.23;;;23.40;95.60;;;;;;4927157;28;20445;-90
2022/09/12 10:33:24;;;;;;;3.43;3.13;;;23.20;95.90;;;;;;4932459;28;20843;-90
2022/09/12 10:35:52;;;;;;;3.07;2.87;;;23.30;96.80;;;;;;4932593;28;20492;-91
2022/09/12 10:38:30;;;;;;;3.17;2.97;;;23.70;96.00;;;;;;4918204;28;20435;-92
2022/09/12 10:41:02;;;;;;;3.30;3.10;;;23.80;95.60;;;;;;4916796;28;20481;-91
2022/09/12 10:43:30;;;;;;;3.53;3.30;;;23.90;96.10;;;;;;4932388;28;20441;-92
2022/09/12 10:45:57;;;;;;;3.13;2.93;;;23.80;94.60;;;;;;4924362;28;20478;-92
2022/09/12 10:48:26;;;;;;;3.03;2.83;;;23.50;93.90;;;;;;4929784;28;20652;-92
2022/09/12 10:50:51;;;;;;;3.00;2.90;;;23.10;94.20;;;;;;4913208;28;20447;-92
2022/09/12 10:53:23;;;;;;;3.10;2.90;;;23.10;95.90;;;;;;4923999;28;20426;-90
2022/09/12 10:56:43;;;;;;;3.03;2.83;;;23.20;93.70;;;;;;4926748;28;20191;-90
2022/09/12 10:59:17;;;;;;;3.20;3.00;;;23.00;93.90;;;;;;4868774;29;20509;-89
2022/09/12 11:01:49;;;;;;;3.30;3.10;;;22.60;94.70;;;;;;4869826;29;20971;-91
2022/09/12 11:04:23;;;;;;;2.80;2.60;;;22.60;95.40;;;;;;4918405;28;20490;-90
2022/09/12 11:07:06;;;;;;;3.03;2.83;;;22.90;95.20;;;;;;4930938;28;21183;-91
2022/09/12 11:09:47;;;;;;;3.23;3.03;;;23.00;94.10;;;;;;4923090;28;20442;-90
2022/09/12 11:12:21;;;;;;;2.93;2.73;;;23.50;95.30;;;;;;4934039;28;20466;-90
2022/09/12 11:15:23;;;;;;;3.40;3.20;;;23.70;93.80;;;;;;4921366;28;21988;-90
2022/09/12 11:17:59;;;;;;;3.27;3.07;;;23.60;93.30;;;;;;4930832;28;20433;-91
2022/09/12 11:21:08;;;;;;;3.33;3.10;;;23.80;94.60;;;;;;4928135;28;20632;-90
2022/09/12 11:23:58;;;;;;;2.90;2.70;;;24.30;92.90;;;;;;4867947;29;21549;-90
2022/09/12 11:26:51;;;;;;;2.80;2.70;;;24.30;93.10;;;;;;4938752;28;21322;-90
2022/09/12 11:29:40;;;;;;;3.00;2.80;;;24.80;94.90;;;;;;4944239;28;20516;-90
2022/09/12 11:32:11;;;;;;;2.67;2.50;;;25.40;94.00;;;;;;4927735;28;20542;-91
2022/09/12 11:34:57;;;;;;;2.30;2.20;;;25.70;87.20;;;;;;4929285;28;20461;-90
2022/09/12 11:37:28;;;;;;;1.87;1.77;;;25.40;82.20;;;;;;4923060;28;20434;-92
2022/09/12 11:39:59;;;;;;;2.00;1.90;;;25.00;81.90;;;;;;4929904;28;20449;-91
2022/09/12 11:42:32;;;;;;;1.93;1.83;;;24.90;83.20;;;;;;4943447;28;20544;-90
2022/09/12 11:45:25;;;;;;;2.20;2.10;;;24.90;84.10;;;;;;4953438;28;20461;-90
2022/09/12 11:48:00;;;;;;;2.27;2.17;;;25.10;83.30;;;;;;4946115;28;20916;-91
2022/09/12 11:50:30;;;;;;;2.10;2.00;;;25.00;84.90;;;;;;4931810;28;20458;-92
2022/09/12 11:53:23;;;;;;;2.00;1.90;;;25.10;83.20;;;;;;4929946;28;20466;-93
2022/09/12 11:56:12;;;;;;;2.90;2.80;;;25.40;86.80;;;;;;4944769;28;20843;-89
2022/09/12 11:58:41;;;;;;;2.50;2.30;;;25.60;87.50;;;;;;4922836;29;20451;-89
2022/09/12 12:01:20;;;;;;;1.87;1.77;;;25.90;86.60;;;;;;4924858;28;20850;-89
2022/09/12 12:04:06;;;;;;;2.43;1.67;;;25.80;75.30;;;;;;4927441;28;20469;-91
2022/09/12 12:07:06;;;;;;;1.77;1.67;;;25.40;76.30;;;;;;4928284;28;20446;-92
2022/09/12 12:09:35;;;;;;;2.20;1.80;;;25.10;78.00;;;;;;4925460;28;21137;-92
2022/09/12 12:12:10;;;;;;;1.60;1.53;;;24.80;78.30;;;;;;4925003;28;20465;-90
2022/09/12 12:14:42;;;;;;;1.80;1.70;;;24.70;78.10;;;;;;4925724;29;21030;-92
2022/09/12 12:17:22;;;;;;;2.30;2.20;;;25.00;79.60;;;;;;4944351;28;20434;-91
2022/09/12 12:20:03;;;;;;;1.77;1.67;;;25.20;80.30;;;;;;4933936;28;20485;-91
2022/09/12 12:22:29;;;;;;;1.80;1.70;;;25.40;76.60;;;;;;4930077;28;20449;-91
2022/09/12 12:25:28;;;;;;;1.70;1.60;;;25.50;73.90;;;;;;4933553;28;20438;-91
2022/09/12 12:28:00;;;;;;;1.70;1.60;;;25.30;75.50;;;;;;4908625;28;20501;-91
2022/09/12 12:30:32;;;;;;;1.80;1.70;;;25.50;76.70;;;;;;4922782;28;20513;-91
2022/09/12 12:33:01;;;;;;;1.77;1.67;;;25.70;80.40;;;;;;4929405;28;20433;-92
2022/09/12 12:35:36;;;;;;;1.80;1.70;;;26.00;78.60;;;;;;4942032;28;20449;-91
2022/09/12 12:38:24;;;;;;;2.67;1.83;;;26.20;73.90;;;;;;4927714;28;20445;-91
2022/09/12 12:40:50;;;;;;;2.03;1.93;;;26.40;76.70;;;;;;4927391;28;20481;-92
2022/09/12 12:44:22;;;;;;;1.53;1.43;;;26.60;71.90;;;;;;4933489;28;20449;-92
2022/09/12 12:47:19;;;;;;;1.70;1.60;;;26.50;72.70;;;;;;4939374;28;20549;-90
2022/09/12 12:50:10;;;;;;;1.80;1.70;;;26.20;75.10;;;;;;4911340;28;20454;-93
2022/09/12 12:52:57;;;;;;;2.00;1.90;;;26.20;72.20;;;;;;4929340;28;20451;-92
2022/09/12 12:55:37;;;;;;;2.03;1.93;;;26.20;74.60;;;;;;4926502;28;21042;-93
2022/09/12 12:58:17;;;;;;;2.10;2.00;;;26.40;74.70;;;;;;4929267;28;20545;-92
2022/09/12 13:00:44;;;;;;;2.37;2.27;;;26.70;78.30;;;;;;4930315;28;20481;-92
2022/09/12 13:03:29;;;;;;;2.10;2.00;;;26.80;77.50;;;;;;4932188;28;20438;-93
2022/09/12 13:06:00;;;;;;;2.40;2.20;;;26.80;77.50;;;;;;4938324;28;20438;-93
2022/09/12 13:08:37;;;;;;;2.00;1.90;;;26.70;72.70;;;;;;4937247;28;21125;-91
2022/09/12 13:11:10;;;;;;;2.07;1.97;;;26.30;71.90;;;;;;4930048;28;21133;-93
2022/09/12 13:13:44;;;;;;;2.23;2.13;;;26.00;73.70;;;;;;4931650;28;20457;-93
2022/09/12 13:16:13;;;;;;;2.13;2.03;;;25.80;74.70;;;;;;4930022;28;20430;-91
2022/09/12 13:18:55;;;;;;;2.00;1.90;;;25.60;75.90;;;;;;4931701;28;20497;-92
2022/09/12 13:21:21;;;;;;;2.43;2.20;;;25.80;78.20;;;;;;4937488;28;20477;-92
2022/09/12 13:24:11;;;;;;;2.10;2.00;;;26.20;75.60;;;;;;4932468;28;20470;-92